Time;durP1;ratioP1;P1;durP2;ratioP2;P2;SDS_P1;SDS_P2;PMS_P1;PMS_P2;Temp;Humidity;BMP_temperature;BMP_pressure;BME280_temperature;BME280_humidity;BME280_pressure;Samples;Min_cycle;Max_cycle;Signal;HPM_P1;HPM_P2
2023/10/11 05:52:18;;;;;;;;;26.50;21.25;;;;;;;;6308165;22;45309;-70
2023/10/11 05:54:45;;;;;;;;;23.25;20.75;;;;;;;;6308894;22;45977;-70
2023/10/11 05:57:13;;;;;;;;;23.00;23.00;;;;;;;;6308634;22;45234;-70
2023/10/11 05:59:38;;;;;;;;;27.75;24.25;;;;;;;;6309189;22;45150;-70
2023/10/11 06:02:18;;;;;;;;;26.50;19.50;;;;;;;;6280487;22;46428;-71
2023/10/11 06:04:44;;;;;;;;;22.75;22.00;;;;;;;;6309363;22;45361;-70
2023/10/11 06:07:20;;;;;;;;;25.75;23.25;;;;;;;;6308244;22;45262;-69
2023/10/11 06:09:46;;;;;;;;;23.00;22.00;;;;;;;;6308841;22;45272;-70
2023/10/11 06:12:23;;;;;;;;;29.50;24.25;;;;;;;;6307572;22;45409;-68
2023/10/11 06:14:55;;;;;;;;;21.25;20.25;;;;;;;;6309013;22;46108;-70
2023/10/11 06:17:21;;;;;;;;;25.25;25.25;;;;;;;;6308716;22;45231;-71
2023/10/11 06:19:56;;;;;;;;;26.50;24.00;;;;;;;;6308553;22;45262;-72
2023/10/11 06:22:21;;;;;;;;;34.50;25.50;;;;;;;;6280461;22;45580;-71
2023/10/11 06:24:47;;;;;;;;;28.75;26.00;;;;;;;;6308868;22;45279;-71
2023/10/11 06:29:56;;;;;;;;;27.75;24.00;;;;;;;;6308942;22;45364;-69
2023/10/11 06:32:22;;;;;;;;;28.25;27.75;;;;;;;;6308343;22;45289;-71
2023/10/11 06:34:47;;;;;;;;;26.25;21.75;;;;;;;;6308863;22;45242;-70
2023/10/11 06:37:17;;;;;;;;;29.00;23.00;;;;;;;;6284233;22;45296;-70
2023/10/11 06:44:47;;;;;;;;;27.75;23.00;;;;;;;;6339752;22;45394;-70
2023/10/11 06:47:13;;;;;;;;;26.25;23.25;;;;;;;;6339676;22;45277;-69
2023/10/11 06:49:44;;;;;;;;;30.50;24.25;;;;;;;;6340416;22;45314;-69
2023/10/11 06:52:12;;;;;;;;;29.25;23.00;;;;;;;;6341161;22;45254;-69
2023/10/11 06:54:38;;;;;;;;;31.00;26.00;;;;;;;;6341503;22;46088;-69
2023/10/11 06:57:03;;;;;;;;;24.00;23.00;;;;;;;;6341020;22;45305;-69
2023/10/11 06:59:28;;;;;;;;;32.00;26.00;;;;;;;;6341560;22;45294;-70
2023/10/11 07:01:53;;;;;;;;;32.50;27.75;;;;;;;;6341382;22;45153;-70
2023/10/11 07:04:19;;;;;;;;;23.50;22.00;;;;;;;;6341649;22;45251;-70
2023/10/11 07:06:46;;;;;;;;;21.75;21.75;;;;;;;;6341132;22;45311;-69
2023/10/11 07:09:19;;;;;;;;;28.75;25.00;;;;;;;;6341451;22;45210;-70
2023/10/11 07:11:52;;;;;;;;;31.75;26.75;;;;;;;;6341269;22;45367;-70
2023/10/11 07:14:18;;;;;;;;;26.75;26.50;;;;;;;;6341111;22;46085;-70
2023/10/11 07:16:44;;;;;;;;;32.00;27.75;;;;;;;;6339559;22;45243;-69
2023/10/11 07:19:11;;;;;;;;;28.00;25.50;;;;;;;;6341517;22;45140;-70
2023/10/11 07:21:52;;;;;;;;;31.50;27.50;;;;;;;;6311644;22;45243;-70
2023/10/11 07:24:32;;;;;;;;;30.50;27.50;;;;;;;;6312490;22;45301;-71
2023/10/11 07:27:09;;;;;;;;;36.75;30.75;;;;;;;;6339340;22;45179;-70
2023/10/11 07:29:42;;;;;;;;;30.00;26.00;;;;;;;;6341757;22;45274;-70
2023/10/11 07:32:09;;;;;;;;;38.50;31.50;;;;;;;;6312693;22;45276;-70
2023/10/11 07:34:36;;;;;;;;;35.75;30.25;;;;;;;;6340680;22;46534;-70
2023/10/11 07:37:05;;;;;;;;;34.00;30.00;;;;;;;;6311621;22;45253;-69
2023/10/11 07:39:33;;;;;;;;;28.25;24.75;;;;;;;;6341419;22;45245;-70
2023/10/11 07:42:06;;;;;;;;;32.25;28.00;;;;;;;;6340567;22;45415;-71
2023/10/11 07:44:36;;;;;;;;;25.75;25.25;;;;;;;;6341273;22;46038;-71
2023/10/11 07:47:02;;;;;;;;;29.00;22.33;;;;;;;;6340301;22;45270;-71
2023/10/11 07:49:27;;;;;;;;;27.00;23.00;;;;;;;;6341410;22;45376;-71
2023/10/11 07:51:53;;;;;;;;;25.33;21.67;;;;;;;;6338701;22;46381;-71
2023/10/11 07:54:21;;;;;;;;;21.33;17.33;;;;;;;;6341451;22;45211;-70
2023/10/11 07:56:56;;;;;;;;;19.33;18.67;;;;;;;;6339988;22;45136;-70
2023/10/11 07:59:24;;;;;;;;;16.00;14.33;;;;;;;;6341248;22;45198;-70
2023/10/11 08:01:53;;;;;;;;;18.33;15.67;;;;;;;;6340021;22;45392;-70
2023/10/11 08:04:21;;;;;;;;;13.67;11.00;;;;;;;;6340998;22;46441;-71
2023/10/11 08:06:47;;;;;;;;;15.33;12.00;;;;;;;;6339785;22;45092;-72
2023/10/11 08:09:19;;;;;;;;;13.67;11.00;;;;;;;;6341359;22;45431;-70
2023/10/11 08:11:57;;;;;;;;;5.33;5.00;;;;;;;;6311470;22;45256;-70
2023/10/11 08:14:28;;;;;;;;;10.33;9.00;;;;;;;;6340424;22;45589;-70
2023/10/11 08:16:56;;;;;;;;;10.67;9.00;;;;;;;;6312007;22;45212;-71
2023/10/11 08:19:22;;;;;;;;;11.67;9.67;;;;;;;;6341640;22;45173;-70
2023/10/11 08:21:54;;;;;;;;;10.67;9.00;;;;;;;;6340678;22;45143;-70
2023/10/11 08:24:24;;;;;;;;;7.00;7.00;;;;;;;;6341374;22;46104;-69
2023/10/11 08:26:52;;;;;;;;;12.67;10.67;;;;;;;;6312373;22;45253;-70
2023/10/11 08:29:27;;;;;;;;;10.00;8.67;;;;;;;;6341301;22;45291;-70
2023/10/11 08:32:06;;;;;;;;;9.00;8.00;;;;;;;;6340719;22;45235;-70
2023/10/11 08:34:31;;;;;;;;;9.00;7.33;;;;;;;;6311828;22;47462;-71
2023/10/11 08:36:57;;;;;;;;;8.00;5.67;;;;;;;;6311236;22;45195;-72
2023/10/11 08:39:27;;;;;;;;;8.00;7.00;;;;;;;;6341306;22;45310;-71
2023/10/11 08:41:54;;;;;;;;;11.67;8.00;;;;;;;;6340847;22;45243;-71
2023/10/11 08:44:20;;;;;;;;;9.00;6.67;;;;;;;;6312774;22;46124;-71
2023/10/11 08:46:48;;;;;;;;;16.00;12.67;;;;;;;;6340829;22;45096;-71
2023/10/11 08:49:14;;;;;;;;;6.00;3.67;;;;;;;;6340905;22;45374;-71
2023/10/11 08:51:42;;;;;;;;;6.00;5.67;;;;;;;;6338356;22;45308;-71
2023/10/11 08:54:11;;;;;;;;;6.33;6.33;;;;;;;;6341151;22;45219;-71
2023/10/11 08:56:37;;;;;;;;;7.50;4.50;;;;;;;;6340421;22;45108;-70
2023/10/11 08:59:02;;;;;;;;;5.67;3.33;;;;;;;;6341086;22;45175;-71
2023/10/11 09:01:27;;;;;;;;;5.00;4.67;;;;;;;;6339136;22;45406;-71
2023/10/11 09:04:13;;;;;;;;;5.00;4.67;;;;;;;;6341194;22;46247;-71
2023/10/11 09:06:43;;;;;;;;;6.33;5.33;;;;;;;;6340687;22;45294;-72
2023/10/11 09:09:15;;;;;;;;;4.00;4.00;;;;;;;;6341369;22;45195;-71
2023/10/11 09:11:55;;;;;;;;;5.00;4.00;;;;;;;;6340292;22;45342;-72
2023/10/11 09:14:23;;;;;;;;;7.67;4.67;;;;;;;;6339047;22;45575;-72
2023/10/11 09:16:50;;;;;;;;;6.33;5.33;;;;;;;;6340331;22;45311;-72
2023/10/11 09:19:19;;;;;;;;;5.00;3.67;;;;;;;;6340940;22;45411;-71
2023/10/11 09:21:57;;;;;;;;;5.00;3.00;;;;;;;;6340325;22;45235;-72
2023/10/11 09:24:24;;;;;;;;;7.67;7.67;;;;;;;;6340819;22;45306;-72
2023/10/11 09:27:09;;;;;;;;;6.00;6.00;;;;;;;;6340455;22;45273;-71
2023/10/11 09:29:34;;;;;;;;;6.33;4.00;;;;;;;;6340802;22;45210;-72
2023/10/11 09:31:59;;;;;;;;;5.00;5.00;;;;;;;;6340269;22;45432;-71
2023/10/11 09:34:29;;;;;;;;;9.33;7.00;;;;;;;;6339837;22;46005;-72
2023/10/11 09:36:58;;;;;;;;;7.33;4.00;;;;;;;;6311109;22;45228;-72
2023/10/11 09:39:28;;;;;;;;;6.33;6.33;;;;;;;;6341036;22;45277;-72
2023/10/11 09:42:02;;;;;;;;;5.00;5.00;;;;;;;;6340228;22;45215;-72
2023/10/11 09:44:30;;;;;;;;;4.00;4.00;;;;;;;;6340453;22;45594;-72
2023/10/11 09:46:58;;;;;;;;;5.33;5.00;;;;;;;;6339947;22;45199;-73
2023/10/11 09:49:26;;;;;;;;;5.00;4.00;;;;;;;;6341295;22;45318;-72
2023/10/11 09:51:52;;;;;;;;;5.75;4.25;;;;;;;;6340271;22;45286;-73
2023/10/11 09:54:17;;;;;;;;;3.00;3.00;;;;;;;;6341392;22;45545;-73
2023/10/11 09:56:50;;;;;;;;;6.75;4.25;;;;;;;;6340629;22;45277;-72
2023/10/11 09:59:34;;;;;;;;;4.50;4.00;;;;;;;;6340794;22;45290;-72
2023/10/11 10:02:02;;;;;;;;;4.50;4.50;;;;;;;;6340179;22;45419;-73
2023/10/11 10:04:46;;;;;;;;;4.25;2.00;;;;;;;;6340793;22;45958;-73
2023/10/11 10:07:20;;;;;;;;;5.25;4.00;;;;;;;;6339948;22;45283;-73
2023/10/11 10:09:52;;;;;;;;;5.25;4.25;;;;;;;;6312324;22;45272;-74
2023/10/11 10:12:21;;;;;;;;;5.00;3.50;;;;;;;;6311522;22;45860;-72
2023/10/11 10:14:50;;;;;;;;;7.75;4.00;;;;;;;;6338364;22;46174;-73
2023/10/11 10:17:16;;;;;;;;;3.75;2.75;;;;;;;;6311643;22;45429;-72
2023/10/11 10:19:45;;;;;;;;;5.00;4.50;;;;;;;;6340822;22;44602;-72
2023/10/11 10:22:21;;;;;;;;;3.25;3.25;;;;;;;;6339593;22;45383;-72
2023/10/11 10:24:47;;;;;;;;;4.75;3.25;;;;;;;;6311373;22;45429;-72
2023/10/11 10:27:33;;;;;;;;;20.00;17.75;;;;;;;;6340314;22;45286;-70
2023/10/11 10:29:59;;;;;;;;;16.50;11.25;;;;;;;;6338984;22;45227;-72
2023/10/11 10:32:25;;;;;;;;;6.25;5.25;;;;;;;;6340398;22;45122;-70
2023/10/11 10:35:11;;;;;;;;;5.50;4.75;;;;;;;;6340519;22;46335;-73
2023/10/11 10:37:46;;;;;;;;;4.40;3.80;;;;;;;;6299869;22;45262;-72
2023/10/11 10:40:18;;;;;;;;;7.00;5.50;;;;;;;;6281604;22;45432;-73
2023/10/11 10:43:03;;;;;;;;;6.25;6.00;;;;;;;;6308865;22;45223;-74
2023/10/11 10:45:28;;;;;;;;;6.40;5.80;;;;;;;;6308808;22;46116;-72
2023/10/11 10:48:10;;;;;;;;;6.75;6.50;;;;;;;;6309712;22;45221;-72
2023/10/11 10:50:46;;;;;;;;;7.75;6.25;;;;;;;;6309960;22;44707;-73
2023/10/11 10:53:14;;;;;;;;;5.50;5.50;;;;;;;;6280123;22;45869;-75
2023/10/11 10:55:42;;;;;;;;;5.60;5.00;;;;;;;;6308749;22;45204;-72
2023/10/11 10:58:07;;;;;;;;;8.20;5.80;;;;;;;;6280345;22;45544;-72
2023/10/11 11:00:34;;;;;;;;;6.00;6.00;;;;;;;;6281212;22;45647;-72
2023/10/11 11:03:00;;;;;;;;;4.75;3.25;;;;;;;;6307538;22;45971;-73
2023/10/11 11:05:29;;;;;;;;;14.25;9.75;;;;;;;;6280723;22;47670;-72
2023/10/11 11:08:15;;;;;;;;;6.60;5.00;;;;;;;;6307837;22;45147;-72
2023/10/11 11:10:54;;;;;;;;;11.20;5.60;;;;;;;;6307815;22;45281;-72
2023/10/11 11:13:19;;;;;;;;;6.00;5.00;;;;;;;;6308137;22;45357;-73
2023/10/11 11:15:45;;;;;;;;;5.75;5.75;;;;;;;;6308456;22;45306;-72
2023/10/11 11:18:13;;;;;;;;;5.50;5.50;;;;;;;;6278765;22;45339;-72
2023/10/11 11:20:41;;;;;;;;;5.00;5.00;;;;;;;;6308631;22;45239;-72
2023/10/11 11:23:06;;;;;;;;;6.40;5.60;;;;;;;;6304909;22;45246;-72
2023/10/11 11:25:34;;;;;;;;;7.25;6.00;;;;;;;;6279783;22;47208;-72
2023/10/11 11:28:05;;;;;;;;;7.40;6.00;;;;;;;;6306536;22;45602;-72
2023/10/11 11:30:34;;;;;;;;;5.60;5.60;;;;;;;;6279493;22;45448;-72
2023/10/11 11:33:13;;;;;;;;;7.80;6.60;;;;;;;;6307635;22;45502;-72
2023/10/11 11:35:43;;;;;;;;;7.40;5.20;;;;;;;;6306796;22;46028;-70
2023/10/11 11:38:19;;;;;;;;;6.00;5.00;;;;;;;;6323643;22;45473;-72
2023/10/11 11:40:51;;;;;;;;;6.80;5.60;;;;;;;;6340573;22;45235;-72
2023/10/11 11:43:17;;;;;;;;;7.40;5.00;;;;;;;;6310246;22;45746;-71
2023/10/11 11:45:43;;;;;;;;;7.60;6.20;;;;;;;;6339161;22;46223;-72
2023/10/11 11:48:09;;;;;;;;;8.00;5.20;;;;;;;;6338563;22;45385;-71
2023/10/11 11:50:34;;;;;;;;;5.00;5.00;;;;;;;;6338831;22;45252;-72
2023/10/11 11:53:00;;;;;;;;;5.75;5.75;;;;;;;;6339267;22;45622;-72
2023/10/11 11:55:26;;;;;;;;;6.00;6.00;;;;;;;;6337901;22;46047;-71
2023/10/11 11:57:51;;;;;;;;;7.50;5.25;;;;;;;;6339493;22;45330;-72
2023/10/11 12:02:55;;;;;;;;;7.80;4.60;;;;;;;;6338903;22;45913;-71
2023/10/11 12:05:21;;;;;;;;;5.00;4.60;;;;;;;;6339318;22;46062;-71
2023/10/11 12:07:49;;;;;;;;;4.00;4.00;;;;;;;;6338627;22;45525;-72
2023/10/11 12:10:26;;;;;;;;;5.60;5.20;;;;;;;;6338605;22;45338;-72
2023/10/11 12:12:51;;;;;;;;;6.80;5.00;;;;;;;;6338477;22;45615;-72
2023/10/11 12:15:17;;;;;;;;;5.75;5.00;;;;;;;;6338156;22;45242;-71
2023/10/11 12:17:43;;;;;;;;;8.25;5.00;;;;;;;;6339453;22;45265;-72
2023/10/11 12:20:12;;;;;;;;;7.75;6.75;;;;;;;;6338725;22;45222;-72
2023/10/11 12:22:42;;;;;;;;;5.20;5.20;;;;;;;;6309336;22;45839;-73
2023/10/11 12:25:08;;;;;;;;;6.20;5.80;;;;;;;;6339722;22;46005;-73
2023/10/11 12:27:33;;;;;;;;;5.00;4.00;;;;;;;;6339079;22;45660;-72
2023/10/11 12:29:59;;;;;;;;;7.00;5.00;;;;;;;;6338896;22;45224;-70
2023/10/11 12:32:24;;;;;;;;;5.00;4.75;;;;;;;;6336203;22;45531;-72
2023/10/11 12:34:51;;;;;;;;;4.75;4.75;;;;;;;;6337703;22;46101;-72
2023/10/11 12:37:18;;;;;;;;;3.80;3.20;;;;;;;;6335405;22;45323;-72
2023/10/11 12:39:43;;;;;;;;;4.25;4.25;;;;;;;;6338349;22;45468;-72
2023/10/11 12:42:11;;;;;;;;;5.00;4.25;;;;;;;;6334741;22;45223;-71
2023/10/11 12:44:40;;;;;;;;;5.40;4.60;;;;;;;;6337802;22;45953;-72
2023/10/11 12:47:10;;;;;;;;;7.40;5.60;;;;;;;;6336562;22;45157;-72
2023/10/11 12:49:35;;;;;;;;;8.60;5.40;;;;;;;;6337861;22;45295;-72
2023/10/11 12:52:05;;;;;;;;;5.25;5.25;;;;;;;;6334906;22;45267;-72
2023/10/11 12:54:31;;;;;;;;;4.20;4.20;;;;;;;;6308908;22;47063;-72
2023/10/11 12:56:56;;;;;;;;;6.00;5.00;;;;;;;;6338210;22;45220;-72
2023/10/11 12:59:22;;;;;;;;;5.75;5.25;;;;;;;;6337650;22;45306;-71
2023/10/11 13:01:52;;;;;;;;;6.60;6.20;;;;;;;;6338126;22;45228;-72
2023/10/11 13:04:18;;;;;;;;;6.60;5.20;;;;;;;;6308900;22;46201;-72
2023/10/11 13:06:49;;;;;;;;;6.50;6.25;;;;;;;;6339003;22;45195;-72
2023/10/11 13:09:15;;;;;;;;;5.60;5.00;;;;;;;;6341398;22;45309;-72
2023/10/11 13:11:44;;;;;;;;;7.80;4.80;;;;;;;;6342990;22;45242;-72
2023/10/11 13:14:10;;;;;;;;;4.80;4.80;;;;;;;;6341938;22;46026;-71
2023/10/11 13:16:38;;;;;;;;;5.60;4.20;;;;;;;;6285902;22;45262;-71
2023/10/11 13:19:03;;;;;;;;;6.40;5.20;;;;;;;;6340611;22;45302;-72
2023/10/11 13:21:33;;;;;;;;;4.75;4.75;;;;;;;;6311146;22;45469;-72
2023/10/11 13:23:59;;;;;;;;;5.00;5.00;;;;;;;;6340663;22;45332;-73
2023/10/11 13:26:24;;;;;;;;;5.25;5.00;;;;;;;;6312456;22;45129;-72
2023/10/11 13:28:53;;;;;;;;;7.50;6.25;;;;;;;;6340351;22;45519;-72
2023/10/11 13:31:18;;;;;;;;;6.00;5.75;;;;;;;;6340260;22;45358;-72
2023/10/11 13:33:43;;;;;;;;;7.00;6.50;;;;;;;;6340462;22;45701;-72
2023/10/11 13:36:12;;;;;;;;;8.00;7.00;;;;;;;;6340589;22;45161;-72
2023/10/11 13:38:38;;;;;;;;;19.50;16.00;;;;;;;;6339209;22;45273;-72
2023/10/11 13:41:03;;;;;;;;;17.25;15.75;;;;;;;;6340060;22;45342;-72
2023/10/11 13:43:29;;;;;;;;;6.80;6.40;;;;;;;;6311861;22;48255;-72
2023/10/11 13:46:01;;;;;;;;;11.75;10.75;;;;;;;;6312284;22;45223;-72
2023/10/11 13:48:33;;;;;;;;;8.20;8.20;;;;;;;;6339922;22;45427;-72
2023/10/11 13:51:03;;;;;;;;;14.00;10.00;;;;;;;;6340465;22;45206;-73
2023/10/11 13:53:28;;;;;;;;;9.20;6.80;;;;;;;;6337507;22;45985;-72
2023/10/11 13:55:54;;;;;;;;;8.00;5.00;;;;;;;;6340692;22;45592;-72
2023/10/11 13:58:19;;;;;;;;;4.25;4.25;;;;;;;;6312219;22;45381;-72
2023/10/11 14:05:39;;;;;;;;;3.20;3.20;;;;;;;;6340393;22;45197;-72
2023/10/11 14:08:23;;;;;;;;;5.75;4.25;;;;;;;;6311773;22;45353;-72
2023/10/11 14:10:48;;;;;;;;;9.50;5.50;;;;;;;;6311529;22;45464;-71
2023/10/11 14:13:14;;;;;;;;;5.00;5.00;;;;;;;;6340166;22;46372;-72
2023/10/11 14:15:39;;;;;;;;;5.00;5.00;;;;;;;;6311748;22;45354;-73
2023/10/11 14:18:11;;;;;;;;;5.00;5.00;;;;;;;;6339937;22;45691;-72
2023/10/11 14:20:36;;;;;;;;;3.60;3.60;;;;;;;;6339724;22;45884;-73
2023/10/11 14:23:04;;;;;;;;;7.00;6.00;;;;;;;;6339394;22;45201;-73
2023/10/11 14:25:30;;;;;;;;;5.20;4.80;;;;;;;;6311802;22;45574;-72
2023/10/11 14:27:55;;;;;;;;;6.75;5.00;;;;;;;;6340390;22;45266;-72
2023/10/11 14:30:20;;;;;;;;;5.25;5.25;;;;;;;;6340581;22;45227;-73
2023/10/11 14:32:46;;;;;;;;;5.25;4.75;;;;;;;;6340043;22;45515;-72
2023/10/11 14:35:12;;;;;;;;;6.75;6.00;;;;;;;;6340631;22;45317;-73
2023/10/11 14:37:40;;;;;;;;;6.80;5.20;;;;;;;;6338888;22;45405;-72
2023/10/11 14:40:15;;;;;;;;;5.40;4.80;;;;;;;;6340223;22;45513;-72
2023/10/11 14:42:41;;;;;;;;;16.60;14.20;;;;;;;;6339707;22;45220;-72
2023/10/11 14:45:07;;;;;;;;;14.25;11.50;;;;;;;;6340079;22;45189;-70
2023/10/11 14:47:33;;;;;;;;;7.00;6.20;;;;;;;;6338193;22;45265;-70
2023/10/11 14:49:59;;;;;;;;;17.50;17.50;;;;;;;;6340344;22;45225;-73
2023/10/11 14:52:27;;;;;;;;;9.00;6.75;;;;;;;;6339717;22;45274;-72
2023/10/11 14:54:54;;;;;;;;;5.80;4.80;;;;;;;;6311531;22;45274;-70
2023/10/11 14:57:21;;;;;;;;;5.60;5.60;;;;;;;;6340206;22;45205;-71
2023/10/11 14:59:46;;;;;;;;;7.00;7.00;;;;;;;;6340066;22;45181;-72
2023/10/11 15:02:12;;;;;;;;;5.00;5.00;;;;;;;;6340017;22;46090;-72
2023/10/11 15:04:37;;;;;;;;;4.00;3.25;;;;;;;;6340466;22;45366;-71
2023/10/11 15:07:06;;;;;;;;;8.00;7.00;;;;;;;;6339644;22;45392;-71
2023/10/11 15:09:33;;;;;;;;;5.60;4.60;;;;;;;;6340078;22;45213;-70
2023/10/11 15:11:58;;;;;;;;;8.60;7.00;;;;;;;;6311582;22;45323;-71
2023/10/11 15:14:24;;;;;;;;;7.25;4.25;;;;;;;;6341767;22;45273;-71
2023/10/11 15:16:49;;;;;;;;;6.50;5.00;;;;;;;;6341554;22;45262;-71
2023/10/11 15:19:14;;;;;;;;;3.50;3.00;;;;;;;;6340992;22;45282;-70
2023/10/11 15:21:39;;;;;;;;;6.00;6.00;;;;;;;;6340634;22;45147;-71
2023/10/11 15:24:07;;;;;;;;;5.75;5.75;;;;;;;;6341099;22;45274;-71
2023/10/11 15:26:33;;;;;;;;;8.60;6.60;;;;;;;;6341236;22;45265;-71
2023/10/11 15:29:00;;;;;;;;;7.00;7.00;;;;;;;;6340788;22;45416;-71
2023/10/11 15:31:30;;;;;;;;;5.80;5.20;;;;;;;;6340950;22;46170;-71
2023/10/11 15:33:57;;;;;;;;;6.40;5.00;;;;;;;;6340669;22;45416;-71
2023/10/11 15:36:22;;;;;;;;;5.60;4.60;;;;;;;;6339751;22;45274;-71
2023/10/11 15:38:47;;;;;;;;;6.25;6.00;;;;;;;;6340267;22;45195;-71
2023/10/11 15:41:16;;;;;;;;;5.50;5.50;;;;;;;;6341215;22;45249;-71
2023/10/11 15:43:41;;;;;;;;;5.60;5.60;;;;;;;;6340877;22;45302;-71
2023/10/11 15:46:10;;;;;;;;;7.00;6.00;;;;;;;;6341161;22;45244;-71
2023/10/11 15:48:35;;;;;;;;;6.40;5.00;;;;;;;;6341152;22;45416;-72
2023/10/11 15:51:10;;;;;;;;;7.25;7.25;;;;;;;;6341153;22;46211;-71
2023/10/11 15:53:39;;;;;;;;;5.60;4.80;;;;;;;;6340702;22;45143;-71
2023/10/11 15:56:05;;;;;;;;;7.25;6.00;;;;;;;;6340622;22;45217;-71
2023/10/11 15:58:31;;;;;;;;;4.75;3.75;;;;;;;;6340709;22;45306;-72
2023/10/11 16:01:03;;;;;;;;;12.00;8.00;;;;;;;;6311979;22;47096;-71
2023/10/11 16:03:28;;;;;;;;;14.25;13.25;;;;;;;;6339104;22;45257;-72
2023/10/11 16:05:57;;;;;;;;;7.00;6.00;;;;;;;;6341164;22;45412;-73
2023/10/11 16:08:24;;;;;;;;;6.00;3.75;;;;;;;;6340666;22;45400;-71
2023/10/11 16:10:58;;;;;;;;;4.75;4.25;;;;;;;;6341013;22;45388;-71
2023/10/11 16:13:24;;;;;;;;;10.25;9.00;;;;;;;;6340090;22;45308;-72
2023/10/11 16:15:57;;;;;;;;;8.00;6.00;;;;;;;;6312535;22;45197;-71
2023/10/11 16:18:24;;;;;;;;;6.75;6.00;;;;;;;;6340232;22;45160;-70
2023/10/11 16:20:49;;;;;;;;;7.00;5.75;;;;;;;;6340386;22;46226;-70
2023/10/11 16:23:14;;;;;;;;;7.00;5.00;;;;;;;;6339923;22;45228;-70
2023/10/11 16:25:40;;;;;;;;;5.50;5.00;;;;;;;;6341201;22;45228;-72
2023/10/11 16:28:09;;;;;;;;;5.25;4.25;;;;;;;;6340371;22;45237;-71
2023/10/11 16:30:34;;;;;;;;;4.00;4.00;;;;;;;;6339407;22;46073;-70
2023/10/11 16:33:00;;;;;;;;;5.50;4.75;;;;;;;;6340516;22;45257;-71
2023/10/11 16:35:28;;;;;;;;;4.25;4.00;;;;;;;;6341246;22;45253;-71
2023/10/11 16:37:54;;;;;;;;;4.50;4.50;;;;;;;;6339853;22;45408;-71
2023/10/11 16:40:19;;;;;;;;;7.00;6.25;;;;;;;;6312476;22;46994;-70
2023/10/11 16:42:46;;;;;;;;;5.00;5.00;;;;;;;;6312166;22;45242;-71
2023/10/11 16:45:13;;;;;;;;;7.75;5.25;;;;;;;;6340283;22;45650;-71
2023/10/11 16:47:41;;;;;;;;;6.50;4.25;;;;;;;;6340675;22;45193;-72
2023/10/11 16:50:07;;;;;;;;;3.75;3.00;;;;;;;;6338783;22;45272;-72
2023/10/11 16:52:32;;;;;;;;;6.25;5.00;;;;;;;;6340084;22;45186;-72
2023/10/11 16:54:58;;;;;;;;;8.00;4.00;;;;;;;;6341116;22;45354;-72
2023/10/11 16:57:23;;;;;;;;;5.00;4.50;;;;;;;;6340226;22;45397;-72
2023/10/11 16:59:49;;;;;;;;;7.75;5.00;;;;;;;;6339528;22;45641;-73
2023/10/11 17:02:14;;;;;;;;;5.25;5.25;;;;;;;;6340699;22;45315;-72
2023/10/11 17:04:39;;;;;;;;;8.50;5.00;;;;;;;;6311622;22;45243;-73
2023/10/11 17:07:07;;;;;;;;;9.75;8.50;;;;;;;;6339771;22;45212;-72
2023/10/11 17:09:32;;;;;;;;;6.25;4.75;;;;;;;;6340734;22;46916;-73
2023/10/11 17:11:57;;;;;;;;;15.75;11.75;;;;;;;;6340977;22;45214;-73
2023/10/11 17:14:23;;;;;;;;;6.00;6.00;;;;;;;;6341485;22;45259;-72
2023/10/11 17:16:48;;;;;;;;;14.75;12.50;;;;;;;;6341096;22;45228;-72
2023/10/11 17:19:13;;;;;;;;;7.75;7.75;;;;;;;;6341057;22;45238;-72
2023/10/11 17:21:38;;;;;;;;;7.50;6.25;;;;;;;;6340641;22;45200;-72
2023/10/11 17:24:05;;;;;;;;;9.00;6.75;;;;;;;;6340830;22;45198;-72
2023/10/11 17:26:32;;;;;;;;;6.00;4.75;;;;;;;;6312562;22;45609;-72
2023/10/11 17:28:59;;;;;;;;;5.25;5.00;;;;;;;;6312509;22;46922;-72
2023/10/11 17:31:26;;;;;;;;;11.50;8.50;;;;;;;;6340122;22;45276;-75
2023/10/11 17:33:52;;;;;;;;;4.00;3.00;;;;;;;;6340873;22;45203;-73
2023/10/11 17:36:18;;;;;;;;;20.00;16.67;;;;;;;;6311765;22;47008;-73
2023/10/11 17:38:43;;;;;;;;;14.67;13.00;;;;;;;;6339798;22;45143;-73
2023/10/11 17:41:08;;;;;;;;;5.75;5.00;;;;;;;;6340859;22;45223;-72
2023/10/11 17:43:36;;;;;;;;;6.00;4.25;;;;;;;;6340998;22;45227;-71
2023/10/11 17:46:04;;;;;;;;;5.00;4.00;;;;;;;;6312282;22;45506;-71
2023/10/11 17:48:30;;;;;;;;;5.25;5.25;;;;;;;;6340101;22;46965;-72
2023/10/11 17:50:55;;;;;;;;;6.50;5.50;;;;;;;;6340719;22;45127;-71
2023/10/11 17:53:21;;;;;;;;;6.25;5.50;;;;;;;;6341019;22;45156;-72
2023/10/11 17:55:46;;;;;;;;;7.75;5.25;;;;;;;;6340999;22;45144;-72
2023/10/11 17:58:12;;;;;;;;;5.25;5.00;;;;;;;;6339267;22;45240;-73
2023/10/11 18:00:37;;;;;;;;;6.00;6.00;;;;;;;;6339072;22;45145;-71
2023/10/11 18:03:03;;;;;;;;;6.50;5.00;;;;;;;;6340753;22;45156;-73
2023/10/11 18:05:30;;;;;;;;;5.25;5.25;;;;;;;;6340802;22;45203;-73
2023/10/11 18:07:56;;;;;;;;;9.25;6.25;;;;;;;;6338738;22;45309;-73
2023/10/11 18:10:21;;;;;;;;;7.00;6.50;;;;;;;;6340987;22;45262;-72
2023/10/11 18:12:47;;;;;;;;;4.75;4.75;;;;;;;;6340839;22;45300;-72
2023/10/11 18:15:13;;;;;;;;;8.75;5.00;;;;;;;;6340757;22;45415;-73
2023/10/11 18:17:43;;;;;;;;;5.75;4.00;;;;;;;;6340278;22;45303;-73
2023/10/11 18:20:09;;;;;;;;;19.67;16.33;;;;;;;;6312447;22;45358;-73
2023/10/11 18:22:36;;;;;;;;;12.33;12.00;;;;;;;;6310939;22;45259;-73
2023/10/11 18:25:02;;;;;;;;;3.25;3.25;;;;;;;;6340592;22;45381;-74
2023/10/11 18:27:27;;;;;;;;;6.00;5.00;;;;;;;;6340227;22;45227;-74
2023/10/11 18:29:52;;;;;;;;;6.25;6.00;;;;;;;;6340935;22;45291;-74
2023/10/11 18:32:22;;;;;;;;;4.75;4.50;;;;;;;;6340648;22;44610;-71
2023/10/11 18:34:50;;;;;;;;;4.25;4.25;;;;;;;;6340035;22;45418;-73
2023/10/11 18:37:16;;;;;;;;;7.00;6.00;;;;;;;;6338770;22;47281;-72
2023/10/11 18:39:44;;;;;;;;;5.75;4.75;;;;;;;;6340372;22;44644;-73
2023/10/11 18:42:12;;;;;;;;;4.50;3.50;;;;;;;;6340607;22;45262;-72
2023/10/11 18:44:37;;;;;;;;;3.25;3.00;;;;;;;;6311865;22;46183;-72
2023/10/11 18:47:03;;;;;;;;;6.25;4.00;;;;;;;;6340785;22;45510;-73
2023/10/11 18:49:28;;;;;;;;;8.00;6.50;;;;;;;;6341683;22;45168;-73
2023/10/11 18:51:54;;;;;;;;;6.00;5.00;;;;;;;;6341084;22;45589;-74
2023/10/11 18:54:19;;;;;;;;;8.25;4.00;;;;;;;;6341285;22;45699;-74
2023/10/11 18:56:44;;;;;;;;;5.25;4.00;;;;;;;;6341459;22;45373;-73
2023/10/11 18:59:09;;;;;;;;;11.75;11.00;;;;;;;;6313488;22;45240;-73
2023/10/11 19:01:35;;;;;;;;;6.75;5.00;;;;;;;;6341671;22;45353;-73
2023/10/11 19:04:01;;;;;;;;;5.00;4.00;;;;;;;;6313304;22;45994;-74
2023/10/11 19:06:27;;;;;;;;;8.00;7.33;;;;;;;;6341070;22;45285;-73
2023/10/11 19:08:52;;;;;;;;;4.75;3.50;;;;;;;;6341374;22;45285;-73
2023/10/11 19:11:19;;;;;;;;;8.00;6.33;;;;;;;;6341621;22;45227;-75
2023/10/11 19:13:45;;;;;;;;;8.75;6.00;;;;;;;;6313198;22;46355;-74
2023/10/11 19:16:15;;;;;;;;;4.00;4.00;;;;;;;;6340084;22;45999;-73
2023/10/11 19:18:40;;;;;;;;;6.25;6.25;;;;;;;;6313021;22;45277;-73
2023/10/11 19:21:05;;;;;;;;;5.67;5.67;;;;;;;;6341565;22;45558;-73
2023/10/11 19:23:36;;;;;;;;;3.50;3.00;;;;;;;;6341310;22;45223;-74
2023/10/11 19:26:02;;;;;;;;;8.33;6.00;;;;;;;;6311984;22;47763;-73
2023/10/11 19:28:30;;;;;;;;;6.75;5.00;;;;;;;;6341376;22;45240;-73
2023/10/11 19:30:57;;;;;;;;;11.50;6.00;;;;;;;;6341897;22;45321;-73
2023/10/11 19:33:22;;;;;;;;;6.25;5.50;;;;;;;;6339976;22;45405;-73
2023/10/11 19:35:48;;;;;;;;;6.75;5.25;;;;;;;;6312871;22;46255;-73
2023/10/11 19:38:13;;;;;;;;;6.25;6.25;;;;;;;;6340332;22;45327;-74
2023/10/11 19:40:38;;;;;;;;;6.00;6.00;;;;;;;;6312588;22;45384;-74
2023/10/11 19:43:06;;;;;;;;;8.00;4.33;;;;;;;;6341167;22;45330;-72
2023/10/11 19:45:33;;;;;;;;;5.33;5.33;;;;;;;;6341309;22;46284;-73
2023/10/11 19:47:58;;;;;;;;;6.67;5.00;;;;;;;;6341351;22;45159;-72
2023/10/11 19:50:26;;;;;;;;;7.33;7.00;;;;;;;;6341642;22;45246;-72
2023/10/11 19:52:52;;;;;;;;;2.00;1.00;;;;;;;;6340551;22;45335;-72
2023/10/11 19:55:18;;;;;;;;;9.67;7.00;;;;;;;;6341195;22;46242;-72
2023/10/11 19:57:44;;;;;;;;;13.00;8.00;;;;;;;;6340539;22;45289;-72
2023/10/11 20:00:10;;;;;;;;;6.00;5.67;;;;;;;;6313274;22;45160;-73
2023/10/11 20:02:35;;;;;;;;;7.00;5.67;;;;;;;;6312868;22;46876;-72
2023/10/11 20:05:00;;;;;;;;;7.33;6.00;;;;;;;;6312786;22;47184;-72
2023/10/11 20:07:26;;;;;;;;;6.67;6.33;;;;;;;;6340940;22;45203;-73
2023/10/11 20:09:53;;;;;;;;;7.00;5.00;;;;;;;;6341644;22;45213;-73
2023/10/11 20:12:18;;;;;;;;;7.67;5.00;;;;;;;;6341089;22;45185;-73
2023/10/11 20:14:46;;;;;;;;;9.00;6.00;;;;;;;;6340970;22;45499;-72
2023/10/11 20:17:12;;;;;;;;;9.00;6.67;;;;;;;;6341019;22;45215;-72
2023/10/11 20:19:37;;;;;;;;;7.00;6.67;;;;;;;;6341533;22;45412;-73
2023/10/11 20:22:03;;;;;;;;;6.00;6.00;;;;;;;;6340658;22;45401;-72
2023/10/11 20:24:31;;;;;;;;;5.67;5.67;;;;;;;;6341110;22;45362;-72
2023/10/11 20:26:57;;;;;;;;;5.67;5.67;;;;;;;;6339853;22;45238;-72
2023/10/11 20:29:22;;;;;;;;;9.00;6.67;;;;;;;;6341355;22;45109;-72
2023/10/11 20:31:49;;;;;;;;;12.67;8.00;;;;;;;;6312157;22;46690;-72
2023/10/11 20:34:18;;;;;;;;;13.67;9.67;;;;;;;;6312452;22;48165;-72
2023/10/11 20:36:43;;;;;;;;;7.67;5.67;;;;;;;;6311363;22;45653;-72
2023/10/11 20:39:08;;;;;;;;;7.00;7.00;;;;;;;;6312601;22;45445;-72
2023/10/11 20:41:34;;;;;;;;;8.00;5.67;;;;;;;;6341113;22;45259;-73
2023/10/11 20:43:59;;;;;;;;;10.33;4.67;;;;;;;;6340859;22;45617;-73
2023/10/11 20:46:24;;;;;;;;;9.00;5.33;;;;;;;;6340773;22;45354;-72
2023/10/11 20:48:50;;;;;;;;;6.67;5.00;;;;;;;;6341106;22;45282;-72